Time;durP1;ratioP1;P1;durP2;ratioP2;P2;SDS_P1;SDS_P2;PMS_P1;PMS_P2;Temp;Humidity;BMP_temperature;BMP_pressure;BME280_temperature;BME280_humidity;BME280_pressure;Samples;Min_cycle;Max_cycle;Signal;HPM_P1;HPM_P2
2022/06/20 00:00:39;;;;;;;6.28;1.65;;;12.20;99.90;;;;;;5096107;28;20036;-73
2022/06/20 00:03:09;;;;;;;11.75;2.08;;;12.10;99.90;;;;;;5095658;28;20051;-73
2022/06/20 00:05:36;;;;;;;12.95;1.67;;;12.10;99.90;;;;;;5095382;28;20062;-72
2022/06/20 00:08:03;;;;;;;8.80;2.40;;;12.10;99.90;;;;;;5096110;28;20040;-73
2022/06/20 00:10:30;;;;;;;13.15;2.05;;;12.10;99.90;;;;;;5095808;28;20039;-73
2022/06/20 00:12:56;;;;;;;10.50;2.08;;;12.10;99.90;;;;;;5096114;28;20482;-73
2022/06/20 00:15:29;;;;;;;8.77;1.75;;;12.10;99.90;;;;;;5084402;28;20635;-73
2022/06/20 00:17:56;;;;;;;4.65;1.52;;;12.20;99.90;;;;;;5075595;28;20521;-72
2022/06/20 00:20:22;;;;;;;6.18;1.70;;;12.30;99.90;;;;;;5090376;28;20036;-73
2022/06/20 00:22:48;;;;;;;10.10;1.98;;;12.30;99.90;;;;;;5095168;28;20040;-73
2022/06/20 00:25:16;;;;;;;7.53;2.10;;;12.30;99.90;;;;;;5086060;28;20063;-73
2022/06/20 00:27:42;;;;;;;10.35;2.08;;;12.30;99.90;;;;;;5075620;28;20135;-74
2022/06/20 00:30:10;;;;;;;13.65;1.98;;;12.30;99.90;;;;;;5075745;28;20032;-73
2022/06/20 00:32:36;;;;;;;9.07;2.85;;;12.30;99.90;;;;;;5075568;28;20087;-73
2022/06/20 00:35:02;;;;;;;8.13;1.80;;;12.30;99.90;;;;;;5075835;28;20064;-73
2022/06/20 00:37:27;;;;;;;8.73;1.85;;;12.20;99.90;;;;;;5075592;28;20052;-74
2022/06/20 00:39:53;;;;;;;8.00;1.88;;;12.30;99.90;;;;;;5057812;28;20102;-74
2022/06/20 00:42:22;;;;;;;9.90;2.22;;;12.30;99.90;;;;;;5075497;28;20445;-74
2022/06/20 00:44:53;;;;;;;9.20;2.00;;;12.20;99.90;;;;;;5075706;28;20044;-74
2022/06/20 00:47:32;;;;;;;6.82;1.75;;;12.20;99.90;;;;;;5075164;28;20506;-73
2022/06/20 00:50:09;;;;;;;6.57;2.47;;;12.20;99.90;;;;;;5075116;28;20462;-74
2022/06/20 00:53:08;;;;;;;13.00;2.20;;;12.20;99.90;;;;;;5075303;28;20044;-74
2022/06/20 00:55:48;;;;;;;10.88;2.08;;;12.10;99.90;;;;;;5086987;28;20393;-73
2022/06/20 00:58:36;;;;;;;13.10;2.00;;;12.10;99.90;;;;;;5095115;28;20051;-73
2022/06/20 01:01:02;;;;;;;11.80;2.53;;;12.10;99.90;;;;;;5095243;28;20050;-73
2022/06/20 01:03:39;;;;;;;7.75;2.28;;;12.10;99.90;;;;;;5095238;28;20078;-74
2022/06/20 01:06:11;;;;;;;14.77;3.33;;;12.10;99.90;;;;;;5081614;28;20045;-73
2022/06/20 01:08:42;;;;;;;11.63;2.10;;;12.20;99.90;;;;;;5077091;28;20048;-73
2022/06/20 01:11:21;;;;;;;13.52;2.85;;;12.10;99.90;;;;;;5095348;28;20115;-73
2022/06/20 01:13:47;;;;;;;9.55;2.28;;;12.10;99.90;;;;;;5095113;28;20048;-73
2022/06/20 01:16:12;;;;;;;8.32;2.25;;;12.00;99.90;;;;;;5094281;28;20054;-74
2022/06/20 01:18:40;;;;;;;10.40;2.78;;;12.00;99.90;;;;;;5094839;28;20127;-73
2022/06/20 01:21:12;;;;;;;21.10;3.60;;;11.70;99.90;;;;;;5094669;28;20076;-74
2022/06/20 01:23:48;;;;;;;10.60;2.88;;;11.60;99.90;;;;;;5094752;28;20048;-74
2022/06/20 01:26:34;;;;;;;9.88;2.28;;;11.50;99.90;;;;;;5079519;28;20390;-73
2022/06/20 01:29:03;;;;;;;10.30;2.75;;;11.30;99.90;;;;;;5074738;28;20040;-73
2022/06/20 01:31:33;;;;;;;9.88;2.83;;;11.20;99.90;;;;;;5074364;28;20509;-73
2022/06/20 01:34:01;;;;;;;9.30;3.25;;;11.10;99.90;;;;;;5074730;28;20051;-74
2022/06/20 01:39:17;;;;;;;14.30;3.85;;;11.00;99.90;;;;;;5074519;28;20063;-74
2022/06/20 01:44:31;;;;;;;10.68;2.80;;;10.80;99.90;;;;;;5073850;28;20052;-74
2022/06/20 01:46:57;;;;;;;17.05;4.20;;;10.60;99.90;;;;;;5074123;28;20705;-74
2022/06/20 01:49:24;;;;;;;15.23;3.65;;;10.60;99.90;;;;;;5073998;28;20059;-74
2022/06/20 01:52:09;;;;;;;12.63;3.92;;;10.60;99.90;;;;;;5073924;28;20135;-74
2022/06/20 01:54:42;;;;;;;13.93;3.40;;;10.60;99.90;;;;;;5073875;28;20049;-74
2022/06/20 01:57:10;;;;;;;11.60;3.53;;;10.60;99.90;;;;;;5094596;28;20055;-74
2022/06/20 01:59:43;;;;;;;20.15;3.65;;;10.60;99.90;;;;;;5094425;28;20076;-74
2022/06/20 02:02:09;;;;;;;14.18;4.10;;;10.60;99.90;;;;;;5094071;28;20363;-74
2022/06/20 02:04:36;;;;;;;11.45;3.40;;;10.50;99.90;;;;;;5093762;28;20044;-74
2022/06/20 02:07:07;;;;;;;13.93;4.15;;;10.60;99.90;;;;;;5077512;28;20048;-74
2022/06/20 02:09:33;;;;;;;14.82;3.92;;;10.60;99.90;;;;;;5094087;28;20051;-74
2022/06/20 02:12:00;;;;;;;12.73;4.80;;;10.60;99.90;;;;;;5094089;28;20044;-74
2022/06/20 02:14:37;;;;;;;14.13;3.50;;;10.50;99.90;;;;;;5093994;28;20040;-74
2022/06/20 02:17:12;;;;;;;12.23;4.43;;;10.50;99.90;;;;;;5093646;28;20123;-74
2022/06/20 02:19:42;;;;;;;12.57;3.95;;;10.40;99.90;;;;;;5093659;28;20127;-74
2022/06/20 02:22:10;;;;;;;9.00;3.33;;;10.40;99.90;;;;;;5093760;28;20461;-74
2022/06/20 02:24:39;;;;;;;22.05;4.30;;;10.30;99.90;;;;;;5093566;28;20055;-75
2022/06/20 02:27:11;;;;;;;11.07;3.40;;;10.20;99.90;;;;;;5074648;28;20051;-74
2022/06/20 02:29:37;;;;;;;9.27;3.47;;;10.00;99.90;;;;;;5073173;28;20116;-74
2022/06/20 02:32:06;;;;;;;11.93;3.65;;;9.90;99.90;;;;;;5073264;28;20432;-74
2022/06/20 02:34:32;;;;;;;9.80;3.38;;;9.70;99.90;;;;;;5073451;28;20055;-73
2022/06/20 02:37:03;;;;;;;13.57;4.40;;;9.60;99.90;;;;;;5073113;28;20536;-74
2022/06/20 02:39:30;;;;;;;10.50;3.88;;;9.50;99.90;;;;;;5054732;28;20041;-74
2022/06/20 02:42:01;;;;;;;15.52;5.03;;;10.80;99.90;;;;;;5072789;28;20123;-74
2022/06/20 02:44:28;;;;;;;11.95;4.57;;;9.50;99.90;;;;;;5072705;28;20680;-74
2022/06/20 02:46:55;;;;;;;13.43;4.40;;;9.50;99.90;;;;;;5091394;28;20086;-74
2022/06/20 02:49:24;;;;;;;16.95;4.43;;;9.50;99.90;;;;;;5093437;28;20052;-74
2022/06/20 02:51:53;;;;;;;10.88;3.90;;;9.50;99.90;;;;;;5093415;28;20529;-74
2022/06/20 02:54:22;;;;;;;10.40;3.85;;;9.50;99.90;;;;;;5092426;28;20048;-74
2022/06/20 02:56:54;;;;;;;10.57;4.20;;;9.50;99.90;;;;;;5073014;28;20048;-73
2022/06/20 02:59:27;;;;;;;10.88;3.47;;;9.40;99.90;;;;;;5073020;28;20084;-74
2022/06/20 03:02:08;;;;;;;12.32;4.00;;;9.30;99.90;;;;;;5072806;28;20495;-73
2022/06/20 03:04:36;;;;;;;14.10;3.90;;;9.20;99.90;;;;;;5073268;28;20055;-74
2022/06/20 03:07:09;;;;;;;9.05;4.32;;;9.20;99.90;;;;;;5073050;28;20433;-73
2022/06/20 03:09:39;;;;;;;11.75;3.78;;;9.10;99.90;;;;;;5072829;28;20494;-74
2022/06/20 03:12:07;;;;;;;14.35;3.83;;;9.00;99.90;;;;;;5073143;28;20417;-74
2022/06/20 03:14:42;;;;;;;16.10;4.40;;;8.90;99.90;;;;;;5073425;28;20098;-74
2022/06/20 03:17:08;;;;;;;15.98;4.88;;;8.90;99.90;;;;;;5072882;28;20135;-73
2022/06/20 03:19:37;;;;;;;19.23;4.60;;;8.80;99.90;;;;;;5072759;28;20124;-74
2022/06/20 03:22:07;;;;;;;11.10;5.25;;;8.80;99.90;;;;;;5072644;28;20367;-73
2022/06/20 03:24:35;;;;;;;14.57;4.47;;;8.70;99.90;;;;;;5076371;28;20048;-73
2022/06/20 03:27:03;;;;;;;13.45;4.60;;;8.70;99.90;;;;;;5093159;28;20130;-73
2022/06/20 03:29:29;;;;;;;12.73;4.47;;;8.70;99.90;;;;;;5093179;28;20050;-74
2022/06/20 03:31:55;;;;;;;12.88;5.15;;;8.60;99.90;;;;;;5092895;28;20044;-75
2022/06/20 03:34:23;;;;;;;18.63;5.03;;;9.10;99.90;;;;;;5078495;28;20094;-74
2022/06/20 03:36:51;;;;;;;17.75;5.28;;;8.60;99.90;;;;;;5092787;28;20502;-73
2022/06/20 03:39:19;;;;;;;12.18;4.72;;;8.60;99.90;;;;;;5093059;28;20036;-74
2022/06/20 03:41:45;;;;;;;18.67;5.47;;;8.60;99.90;;;;;;5092750;28;20569;-73
2022/06/20 03:44:15;;;;;;;13.38;5.03;;;8.70;99.90;;;;;;5092544;28;20028;-74
2022/06/20 03:47:03;;;;;;;14.27;5.35;;;8.60;99.90;;;;;;5092508;28;20367;-74
2022/06/20 03:49:38;;;;;;;12.02;5.00;;;8.70;99.90;;;;;;5093113;28;20101;-73
2022/06/20 03:52:13;;;;;;;15.10;5.00;;;8.60;99.90;;;;;;5092996;28;20077;-74
2022/06/20 03:55:05;;;;;;;15.18;5.60;;;8.70;99.90;;;;;;5092810;28;20108;-74
2022/06/20 03:57:54;;;;;;;12.75;4.78;;;8.60;99.90;;;;;;5074182;28;20086;-74
2022/06/20 04:00:33;;;;;;;20.13;5.00;;;8.60;99.90;;;;;;5071630;28;20076;-74
2022/06/20 04:03:04;;;;;;;12.25;5.00;;;8.60;99.90;;;;;;5072502;28;20410;-74
2022/06/20 04:05:36;;;;;;;20.67;5.10;;;8.60;99.90;;;;;;5072991;28;20049;-74
2022/06/20 04:08:19;;;;;;;13.43;5.32;;;8.60;99.90;;;;;;5076167;28;20470;-74
2022/06/20 04:10:58;;;;;;;10.02;4.53;;;8.60;99.90;;;;;;5076431;28;20368;-74
2022/06/20 04:13:36;;;;;;;19.83;5.07;;;8.60;99.90;;;;;;5076181;28;20127;-74
2022/06/20 04:16:08;;;;;;;14.18;5.65;;;8.70;99.90;;;;;;5095968;28;20127;-73
2022/06/20 04:18:55;;;;;;;13.93;5.72;;;8.80;99.90;;;;;;5096320;28;20047;-73
2022/06/20 04:21:36;;;;;;;10.57;4.97;;;8.80;99.90;;;;;;5096243;28;20096;-74
2022/06/20 04:24:47;;;;;;;11.80;5.55;;;8.90;99.90;;;;;;5089962;28;20048;-73
2022/06/20 04:27:58;;;;;;;10.27;4.88;;;9.00;99.90;;;;;;5076107;28;20059;-74
2022/06/20 04:30:38;;;;;;;13.82;4.28;;;9.30;99.90;;;;;;5071401;28;20080;-74
2022/06/20 04:33:47;;;;;;;12.55;4.97;;;9.70;99.90;;;;;;5075875;28;20092;-74
2022/06/20 04:36:19;;;;;;;16.27;5.13;;;10.10;99.90;;;;;;5068237;28;20049;-74
2022/06/20 04:38:57;;;;;;;10.40;3.85;;;10.40;99.90;;;;;;5075529;28;20052;-74
2022/06/20 04:41:42;;;;;;;12.07;3.58;;;10.70;99.90;;;;;;5075613;28;20041;-74
2022/06/20 04:44:24;;;;;;;13.83;3.87;;;10.90;99.90;;;;;;5075382;28;20045;-74
2022/06/20 04:47:08;;;;;;;13.20;3.15;;;11.00;99.90;;;;;;5075666;28;20063;-74
2022/06/20 04:49:35;;;;;;;10.27;3.20;;;11.10;99.90;;;;;;5073618;28;20056;-74
2022/06/20 04:52:01;;;;;;;7.78;2.75;;;11.40;99.90;;;;;;5073801;28;20055;-74
2022/06/20 04:54:27;;;;;;;7.50;2.45;;;11.90;99.90;;;;;;5081329;28;20444;-75
2022/06/20 04:56:54;;;;;;;14.65;3.00;;;12.90;99.90;;;;;;5091863;28;20082;-74
2022/06/20 04:59:27;;;;;;;11.77;2.85;;;13.80;99.90;;;;;;5091636;28;20083;-74
2022/06/20 05:01:55;;;;;;;7.30;2.05;;;14.70;99.90;;;;;;5059572;28;20056;-75
2022/06/20 05:04:37;;;;;;;24.20;3.85;;;15.40;99.90;;;;;;5053363;28;20103;-74
2022/06/20 05:07:06;;;;;;;10.75;2.30;;;15.70;99.90;;;;;;5071338;28;20086;-71
2022/06/20 05:09:50;;;;;;;8.38;2.08;;;16.20;99.90;;;;;;5078865;28;20582;-72
2022/06/20 05:12:28;;;;;;;9.68;2.13;;;16.90;99.90;;;;;;5090605;28;20655;-72
2022/06/20 05:15:03;;;;;;;8.85;2.30;;;17.60;99.90;;;;;;5091548;28;20113;-73
2022/06/20 05:17:31;;;;;;;8.90;2.15;;;18.10;99.90;;;;;;5076538;28;20041;-73
2022/06/20 05:20:05;;;;;;;8.27;2.03;;;18.60;99.90;;;;;;5085291;28;20055;-72
2022/06/20 05:22:37;;;;;;;9.68;2.63;;;19.20;99.90;;;;;;5094886;28;20048;-72
2022/06/20 05:25:07;;;;;;;8.90;2.38;;;19.50;99.90;;;;;;5095136;28;20386;-74
2022/06/20 05:27:50;;;;;;;7.97;2.10;;;19.30;93.50;;;;;;5095151;28;20044;-73
2022/06/20 05:30:20;;;;;;;9.07;2.67;;;19.70;92.80;;;;;;5093978;28;20048;-73
2022/06/20 05:33:13;;;;;;;9.02;2.30;;;20.00;87.70;;;;;;5094450;28;20696;-74
2022/06/20 05:36:18;;;;;;;8.95;1.80;;;20.20;82.50;;;;;;5043032;28;20559;-74
2022/06/20 05:38:52;;;;;;;7.60;2.40;;;20.20;75.30;;;;;;5073387;28;20481;-72
2022/06/20 05:41:18;;;;;;;9.93;2.38;;;20.40;73.00;;;;;;5094675;28;20115;-74
2022/06/20 05:43:44;;;;;;;8.40;2.53;;;20.70;73.00;;;;;;5094599;28;20411;-73
2022/06/20 05:46:25;;;;;;;8.85;2.33;;;21.20;60.90;;;;;;5094430;28;20097;-74
2022/06/20 05:49:05;;;;;;;13.27;3.42;;;20.70;54.60;;;;;;5094898;28;20042;-74
2022/06/20 05:51:35;;;;;;;8.98;2.75;;;21.00;62.50;;;;;;5094642;28;20044;-73
2022/06/20 05:54:20;;;;;;;8.38;1.92;;;20.80;54.90;;;;;;5094668;28;20602;-74
2022/06/20 05:56:50;;;;;;;11.85;1.95;;;21.00;40.80;;;;;;5094693;28;20051;-73
2022/06/20 05:59:25;;;;;;;10.63;2.55;;;20.70;40.30;;;;;;5094509;28;20462;-74
2022/06/20 06:01:52;;;;;;;10.50;2.60;;;20.50;46.60;;;;;;5094322;28;20085;-73
2022/06/20 06:04:36;;;;;;;10.27;2.08;;;20.60;50.50;;;;;;5076434;28;20089;-74
2022/06/20 06:07:19;;;;;;;9.82;2.97;;;20.20;39.90;;;;;;5093898;28;20059;-74
2022/06/20 06:09:53;;;;;;;7.03;2.40;;;20.30;49.80;;;;;;5093743;28;20119;-74
2022/06/20 06:12:26;;;;;;;8.15;2.20;;;19.70;45.40;;;;;;5093395;28;20469;-74
2022/06/20 06:14:58;;;;;;;12.32;3.47;;;19.80;45.80;;;;;;5093385;28;20055;-74
2022/06/20 06:17:41;;;;;;;11.63;2.30;;;20.30;46.70;;;;;;5093660;28;20048;-73
2022/06/20 06:20:17;;;;;;;9.82;2.28;;;20.90;38.90;;;;;;5093118;28;20142;-75
2022/06/20 06:22:47;;;;;;;8.23;2.10;;;21.00;29.00;;;;;;5093378;28;20059;-74
2022/06/20 06:25:41;;;;;;;8.50;1.90;;;21.00;29.50;;;;;;5092866;28;20044;-74
2022/06/20 06:28:21;;;;;;;9.07;2.53;;;21.30;22.10;;;;;;5087528;28;20063;-73
2022/06/20 06:30:54;;;;;;;11.45;2.58;;;21.50;22.90;;;;;;5089597;28;20036;-75
2022/06/20 06:33:23;;;;;;;12.30;1.90;;;21.80;16.90;;;;;;5089325;28;20052;-75
2022/06/20 06:36:17;;;;;;;7.63;2.33;;;21.60;21.30;;;;;;5089037;28;20066;-74
2022/06/20 06:39:09;;;;;;;11.40;3.08;;;21.50;15.80;;;;;;5089405;28;20075;-75
2022/06/20 06:41:45;;;;;;;7.45;2.33;;;21.80;15.60;;;;;;5089146;28;20417;-74
2022/06/20 06:44:40;;;;;;;7.00;2.17;;;22.30;13.70;;;;;;5070870;28;20482;-74
2022/06/20 06:47:19;;;;;;;16.85;2.42;;;21.80;10.30;;;;;;5086268;28;20090;-74
2022/06/20 06:49:54;;;;;;;8.80;2.22;;;22.00;14.90;;;;;;5089050;28;20587;-74
2022/06/20 06:52:37;;;;;;;6.53;2.15;;;22.80;5.60;;;;;;5089044;28;20040;-75
2022/06/20 06:55:25;;;;;;;8.43;2.13;;;22.90;5.80;;;;;;5089221;28;20043;-74
2022/06/20 06:58:01;;;;;;;11.70;2.38;;;22.80;4.80;;;;;;5088913;28;20052;-75
2022/06/20 07:00:38;;;;;;;10.13;2.80;;;22.40;2.90;;;;;;5088847;28;20104;-74
2022/06/20 07:03:18;;;;;;;13.02;2.30;;;21.70;9.90;;;;;;5088972;28;20359;-74
2022/06/20 07:05:54;;;;;;;9.32;1.90;;;21.90;7.40;;;;;;5088528;28;20497;-74
2022/06/20 07:08:26;;;;;;;9.32;2.72;;;22.60;1.00;;;;;;5089010;28;20378;-74
2022/06/20 07:10:59;;;;;;;8.13;2.20;;;22.80;1.00;;;;;;5088808;28;20052;-75
2022/06/20 07:13:27;;;;;;;8.85;2.92;;;22.80;2.30;;;;;;5088983;28;20047;-74
2022/06/20 07:15:58;;;;;;;8.80;1.85;;;22.40;1.00;;;;;;5091839;28;20067;-75
2022/06/20 07:18:39;;;;;;;7.43;2.08;;;21.70;5.10;;;;;;5091407;28;20051;-74
2022/06/20 07:21:05;;;;;;;9.32;2.38;;;21.70;9.00;;;;;;5091704;28;20605;-74
2022/06/20 07:23:31;;;;;;;7.97;2.42;;;22.20;4.30;;;;;;5091841;28;20067;-74
2022/06/20 07:25:57;;;;;;;6.50;2.38;;;22.10;4.70;;;;;;5091659;28;20044;-75
2022/06/20 07:28:29;;;;;;;7.80;2.35;;;21.00;11.30;;;;;;5091745;28;20040;-74
2022/06/20 07:31:05;;;;;;;11.98;2.55;;;20.60;11.30;;;;;;5091529;28;20079;-74
2022/06/20 07:33:42;;;;;;;9.52;2.17;;;21.70;9.50;;;;;;5091713;28;20457;-74
2022/06/20 07:36:10;;;;;;;13.68;2.88;;;23.30;2.70;;;;;;5091565;28;20033;-73
2022/06/20 07:38:56;;;;;;;7.50;2.25;;;23.20;1.00;;;;;;5091912;28;20474;-75
2022/06/20 07:41:37;;;;;;;8.13;1.80;;;22.10;1.00;;;;;;5093430;28;20394;-74
2022/06/20 07:44:10;;;;;;;8.95;2.22;;;20.30;10.10;;;;;;5095782;28;20054;-74
2022/06/20 07:47:02;;;;;;;6.68;2.10;;;20.70;12.30;;;;;;5095487;28;20143;-74
2022/06/20 07:49:42;;;;;;;8.98;2.03;;;22.00;3.40;;;;;;5095802;28;20044;-74
2022/06/20 07:52:18;;;;;;;7.78;2.22;;;22.70;1.00;;;;;;5095862;28;20048;-74
2022/06/20 07:54:48;;;;;;;8.95;2.53;;;23.40;1.00;;;;;;5095492;28;20040;-74
2022/06/20 07:57:26;;;;;;;8.25;1.90;;;23.00;1.00;;;;;;5095626;28;20279;-74
2022/06/20 08:00:04;;;;;;;12.15;2.15;;;21.60;1.00;;;;;;5095382;28;20449;-74
2022/06/20 08:02:40;;;;;;;6.35;2.08;;;20.90;6.40;;;;;;5095400;28;20505;-74
2022/06/20 08:05:06;;;;;;;6.80;1.63;;;20.50;7.40;;;;;;5095083;28;20131;-73
2022/06/20 08:07:44;;;;;;;11.95;2.47;;;19.90;15.40;;;;;;5095204;28;20325;-74
2022/06/20 08:10:25;;;;;;;8.15;1.80;;;19.50;27.40;;;;;;5095314;28;20044;-74
2022/06/20 08:13:12;;;;;;;11.35;2.38;;;19.40;25.50;;;;;;5095431;28;20051;-74
2022/06/20 08:15:50;;;;;;;9.13;1.55;;;20.50;30.60;;;;;;5094895;28;20044;-74
2022/06/20 08:18:16;;;;;;;7.45;1.52;;;20.60;19.00;;;;;;5095045;28;20040;-74
2022/06/20 08:20:47;;;;;;;11.80;2.42;;;20.50;21.80;;;;;;5094746;28;20097;-74
2022/06/20 08:23:18;;;;;;;8.15;2.13;;;19.50;27.90;;;;;;5094973;28;20500;-74
2022/06/20 08:25:48;;;;;;;5.93;1.40;;;19.80;25.00;;;;;;5095106;28;20048;-74
2022/06/20 08:28:23;;;;;;;6.80;1.77;;;20.80;19.50;;;;;;5094829;28;20052;-74
2022/06/20 08:31:00;;;;;;;5.38;1.50;;;22.00;8.10;;;;;;5094943;28;20040;-74
2022/06/20 08:33:39;;;;;;;4.72;1.45;;;22.80;1.00;;;;;;5094994;28;20046;-74
2022/06/20 08:36:16;;;;;;;4.18;1.52;;;23.50;1.00;;;;;;5094470;28;20556;-74
2022/06/20 08:38:45;;;;;;;4.90;1.33;;;23.60;1.00;;;;;;5094605;28;20044;-75
2022/06/20 08:41:24;;;;;;;8.23;1.02;;;23.60;1.00;;;;;;5094700;28;20044;-74
2022/06/20 08:44:21;;;;;;;6.35;0.90;;;23.30;1.00;;;;;;5094859;28;20451;-74
2022/06/20 08:47:09;;;;;;;;;;;23.40;1.00;;;;;;5094770;28;20056;-74
2022/06/20 08:49:56;;;;;;;6.13;1.30;;;24.20;1.00;;;;;;5094432;28;19959;-74
2022/06/20 08:52:52;;;;;;;3.08;1.50;;;24.60;1.00;;;;;;5093251;28;20040;-73
2022/06/20 08:55:46;;;;;;;3.03;1.33;;;24.80;1.00;;;;;;5094350;28;20044;-74
2022/06/20 08:58:26;;;;;;;4.70;1.23;;;23.50;1.00;;;;;;5094336;28;20445;-74
2022/06/20 09:01:17;;;;;;;4.78;1.40;;;22.80;1.00;;;;;;5093895;28;20501;-74
2022/06/20 09:04:01;;;;;;;4.75;1.30;;;22.00;1.00;;;;;;5094085;28;20044;-73
2022/06/20 09:06:46;;;;;;;8.73;1.42;;;20.80;1.00;;;;;;5094264;28;20461;-73
2022/06/20 09:09:41;;;;;;;7.07;1.65;;;20.30;4.10;;;;;;5094100;28;20079;-74
2022/06/20 09:12:18;;;;;;;8.60;1.45;;;19.50;13.60;;;;;;5094007;28;20032;-74
2022/06/20 09:15:08;;;;;;;7.97;1.35;;;19.30;20.00;;;;;;5094091;28;20402;-73
2022/06/20 09:18:04;;;;;;;9.15;1.90;;;19.40;19.60;;;;;;5093794;28;20123;-73
2022/06/20 09:20:34;;;;;;;10.25;1.65;;;20.50;19.00;;;;;;5093388;28;20052;-73
2022/06/20 09:23:09;;;;;;;5.60;1.30;;;22.00;5.00;;;;;;5093824;28;20044;-73
2022/06/20 09:25:55;;;;;;;4.50;1.45;;;22.70;2.50;;;;;;5093646;28;20199;-73
2022/06/20 09:28:40;;;;;;;5.18;1.67;;;23.40;1.00;;;;;;5093689;28;20516;-73
2022/06/20 09:31:14;;;;;;;8.35;2.20;;;22.90;1.00;;;;;;5093807;28;20051;-74
2022/06/20 09:33:58;;;;;;;10.75;1.77;;;22.30;1.00;;;;;;5093826;28;20063;-73
2022/06/20 09:36:50;;;;;;;4.93;1.67;;;21.70;1.00;;;;;;5093421;28;20051;-73
2022/06/20 09:39:20;;;;;;;5.70;1.88;;;22.20;1.00;;;;;;5093367;28;20048;-72
2022/06/20 09:42:05;;;;;;;6.45;1.27;;;23.70;1.00;;;;;;5093540;28;20093;-74
2022/06/20 09:44:46;;;;;;;4.03;1.30;;;23.00;1.00;;;;;;5093128;28;20515;-73
2022/06/20 09:47:25;;;;;;;4.57;1.30;;;22.20;1.00;;;;;;5093123;28;20054;-74
2022/06/20 09:50:28;;;;;;;5.82;1.05;;;20.60;1.00;;;;;;5093425;28;20046;-73
2022/06/20 09:53:10;;;;;;;6.65;1.65;;;21.10;1.00;;;;;;5093134;28;20145;-74
2022/06/20 09:55:54;;;;;;;6.95;1.10;;;21.80;1.00;;;;;;5085330;28;20414;-74
2022/06/20 09:58:33;;;;;;;3.42;1.25;;;21.80;1.00;;;;;;5069922;28;20109;-72
2022/06/20 10:01:05;;;;;;;5.22;1.00;;;21.50;1.00;;;;;;5067991;28;20102;-73
2022/06/20 10:04:15;;;;;;;3.30;1.00;;;21.50;1.00;;;;;;5068016;28;20047;-74
2022/06/20 10:06:47;;;;;;;8.70;1.55;;;20.70;1.00;;;;;;5012621;28;20131;-73
2022/06/20 10:09:46;;;;;;;3.80;0.90;;;20.90;1.00;;;;;;5068206;28;20139;-74
2022/06/20 10:12:31;;;;;;;6.57;2.03;;;20.60;3.70;;;;;;5067927;28;20051;-73
2022/06/20 10:15:20;;;;;;;7.88;1.40;;;20.00;11.90;;;;;;5068085;28;20050;-75
2022/06/20 10:17:53;;;;;;;4.30;1.33;;;19.80;19.00;;;;;;5067836;28;20052;-73
2022/06/20 10:20:45;;;;;;;5.72;1.73;;;19.60;18.40;;;;;;5067786;28;20075;-74
2022/06/20 10:23:58;;;;;;;10.70;1.40;;;19.70;16.80;;;;;;5067858;28;20123;-74
2022/06/20 10:26:45;;;;;;;7.90;1.48;;;20.30;17.30;;;;;;5067539;28;20048;-74
2022/06/20 10:29:22;;;;;;;8.90;1.50;;;20.20;15.10;;;;;;5068809;28;20695;-73
2022/06/20 10:32:13;;;;;;;4.90;1.15;;;20.70;11.80;;;;;;5071162;28;20051;-74
2022/06/20 10:34:44;;;;;;;2.55;1.10;;;21.00;3.50;;;;;;5044270;28;20063;-74
2022/06/20 10:37:51;;;;;;;8.27;1.00;;;21.40;1.00;;;;;;5071867;28;20048;-74
2022/06/20 10:40:32;;;;;;;5.57;1.33;;;21.80;1.00;;;;;;5053768;28;20048;-74
2022/06/20 10:43:09;;;;;;;6.18;1.52;;;21.40;1.00;;;;;;5072589;28;20051;-74
2022/06/20 10:45:46;;;;;;;9.57;1.60;;;21.80;1.00;;;;;;5071670;28;20493;-74
2022/06/20 10:48:12;;;;;;;14.35;1.73;;;22.00;2.50;;;;;;5072580;28;20052;-73
2022/06/20 10:50:55;;;;;;;3.35;0.90;;;21.70;1.00;;;;;;5071284;28;20052;-73
2022/06/20 10:53:46;;;;;;;8.27;1.52;;;21.20;1.00;;;;;;5071225;28;20044;-74
2022/06/20 10:56:43;;;;;;;7.78;1.65;;;21.60;1.00;;;;;;5071470;28;20088;-73
2022/06/20 10:59:42;;;;;;;4.53;1.20;;;22.10;1.00;;;;;;5072338;28;20040;-74
2022/06/20 11:02:45;;;;;;;5.90;1.02;;;21.10;1.00;;;;;;5072203;28;20413;-73
2022/06/20 11:05:48;;;;;;;4.18;1.20;;;20.70;1.00;;;;;;5072185;28;20048;-73
2022/06/20 11:08:41;;;;;;;7.13;1.48;;;20.50;1.00;;;;;;5072275;28;20409;-73
2022/06/20 11:11:21;;;;;;;4.80;1.20;;;20.50;1.00;;;;;;5072156;28;20040;-74
2022/06/20 11:14:19;;;;;;;5.10;1.45;;;21.30;1.00;;;;;;5072039;28;20072;-74
2022/06/20 11:17:17;;;;;;;5.35;1.02;;;21.80;1.00;;;;;;5071178;28;20049;-74
2022/06/20 11:20:02;;;;;;;5.90;1.67;;;22.10;1.00;;;;;;5072063;28;20098;-74
2022/06/20 11:23:05;;;;;;;4.72;1.20;;;21.70;1.00;;;;;;5072002;28;20047;-74
2022/06/20 11:25:54;;;;;;;8.35;1.42;;;21.90;1.00;;;;;;5049855;28;20587;-74
2022/06/20 11:28:36;;;;;;;4.80;1.00;;;23.10;1.00;;;;;;5071984;28;20094;-74
2022/06/20 11:31:20;;;;;;;6.32;1.15;;;24.40;1.00;;;;;;5071481;28;21301;-74
2022/06/20 11:34:01;;;;;;;5.07;1.23;;;24.60;1.00;;;;;;5071748;28;20506;-74
2022/06/20 11:36:47;;;;;;;8.07;1.90;;;25.70;1.00;;;;;;5071806;28;20142;-75
2022/06/20 11:39:19;;;;;;;5.47;1.15;;;26.30;1.00;;;;;;5071661;28;20418;-74
2022/06/20 11:42:09;;;;;;;8.73;2.03;;;26.00;1.00;;;;;;5071635;28;20090;-75
2022/06/20 11:44:43;;;;;;;5.82;1.20;;;24.50;1.00;;;;;;5020311;28;20048;-74
2022/06/20 11:47:18;;;;;;;6.63;1.50;;;25.10;1.00;;;;;;5071754;28;20053;-74
2022/06/20 11:49:53;;;;;;;5.93;1.30;;;25.50;1.00;;;;;;5071574;28;20047;-74
2022/06/20 11:52:38;;;;;;;3.70;1.17;;;23.90;1.00;;;;;;5071673;28;20348;-74
2022/06/20 11:55:30;;;;;;;5.80;1.40;;;23.50;1.00;;;;;;5071607;28;20486;-74
2022/06/20 11:58:17;;;;;;;2.35;0.93;;;24.80;1.00;;;;;;5071769;28;20066;-74
2022/06/20 12:00:55;;;;;;;6.18;1.70;;;25.50;1.00;;;;;;5071436;28;20036;-74
2022/06/20 12:03:39;;;;;;;4.28;1.10;;;26.00;1.00;;;;;;5071866;28;20252;-74
2022/06/20 12:06:10;;;;;;;4.03;1.10;;;25.90;1.00;;;;;;5071244;28;20044;-75
2022/06/20 12:08:57;;;;;;;5.32;1.30;;;25.20;1.00;;;;;;5071777;28;20060;-74
2022/06/20 12:12:06;;;;;;;7.47;1.60;;;24.60;1.00;;;;;;5071521;28;20487;-74
2022/06/20 12:14:52;;;;;;;3.80;1.13;;;25.70;1.00;;;;;;5023942;28;20166;-74
2022/06/20 12:17:18;;;;;;;5.00;1.35;;;26.30;1.00;;;;;;5071465;28;20044;-74
2022/06/20 12:23:19;;;;;;;5.63;0.90;;;25.70;1.00;;;;;;5071463;28;20048;-73
2022/06/20 12:25:47;;;;;;;5.82;2.03;;;25.40;1.00;;;;;;5071495;28;20402;-74
2022/06/20 12:28:18;;;;;;;4.38;1.42;;;24.10;1.00;;;;;;5074116;28;20082;-73
2022/06/20 12:30:55;;;;;;;6.15;1.65;;;23.10;1.00;;;;;;5075151;28;20036;-73
2022/06/20 12:33:21;;;;;;;11.00;1.63;;;22.80;1.00;;;;;;5075112;28;20040;-74
2022/06/20 12:35:55;;;;;;;6.28;1.55;;;22.00;1.00;;;;;;5074781;28;20559;-74
2022/06/20 12:38:34;;;;;;;3.97;1.27;;;21.40;1.00;;;;;;5074884;28;20062;-73
2022/06/20 12:41:06;;;;;;;6.90;1.30;;;21.50;1.00;;;;;;5074740;28;20044;-74
2022/06/20 12:43:49;;;;;;;6.95;1.58;;;22.50;1.00;;;;;;5075165;28;20044;-73
2022/06/20 12:46:51;;;;;;;3.45;1.60;;;23.90;1.00;;;;;;5074871;28;20078;-74
2022/06/20 12:49:26;;;;;;;3.50;1.05;;;25.20;1.00;;;;;;4970080;28;20047;-74
2022/06/20 12:52:03;;;;;;;8.05;1.38;;;25.90;1.00;;;;;;5074974;28;20040;-73
2022/06/20 12:54:58;;;;;;;5.60;1.15;;;25.80;1.00;;;;;;5074908;28;20052;-74
2022/06/20 12:57:26;;;;;;;3.38;1.10;;;25.30;1.00;;;;;;5075073;28;20052;-73
2022/06/20 13:00:13;;;;;;;2.38;0.90;;;24.20;1.00;;;;;;5074621;28;20048;-74
2022/06/20 13:03:25;;;;;;;5.10;1.20;;;23.40;1.00;;;;;;5056446;28;20103;-74
2022/06/20 13:06:36;;;;;;;3.63;1.00;;;22.00;1.00;;;;;;5074762;28;20040;-74
2022/06/20 13:09:08;;;;;;;1.67;0.90;;;21.20;1.00;;;;;;5064227;28;20059;-74
2022/06/20 13:11:42;;;;;;;6.53;2.08;;;21.30;1.00;;;;;;5091273;28;20101;-73
2022/06/20 13:14:37;;;;;;;5.68;0.98;;;21.20;1.00;;;;;;5093339;28;20132;-74
2022/06/20 13:17:42;;;;;;;5.13;1.25;;;21.10;1.00;;;;;;5092270;28;20051;-74
2022/06/20 13:20:55;;;;;;;7.88;2.03;;;20.00;1.00;;;;;;5089806;28;20516;-74
2022/06/20 13:23:31;;;;;;;3.03;1.10;;;20.00;1.90;;;;;;4987572;28;20046;-73
2022/06/20 13:26:02;;;;;;;4.13;1.10;;;20.40;3.50;;;;;;5084498;28;20052;-74
2022/06/20 13:28:45;;;;;;;2.95;0.90;;;21.90;1.00;;;;;;5090006;28;20133;-75
2022/06/20 13:31:26;;;;;;;4.47;1.67;;;22.50;1.00;;;;;;5090206;28;20460;-75
2022/06/20 13:34:41;;;;;;;5.35;1.40;;;23.90;1.00;;;;;;5090050;28;20055;-75
2022/06/20 13:37:24;;;;;;;4.20;1.20;;;24.20;1.00;;;;;;5090099;28;20044;-74
2022/06/20 13:40:02;;;;;;;6.63;1.30;;;24.10;1.00;;;;;;5088805;28;20054;-75
2022/06/20 13:42:32;;;;;;;8.77;1.92;;;24.20;1.00;;;;;;5072583;28;20040;-74
2022/06/20 13:45:28;;;;;;;6.15;1.20;;;24.80;1.00;;;;;;5069175;28;20127;-74
2022/06/20 13:48:19;;;;;;;4.25;1.10;;;22.90;1.00;;;;;;5070353;28;20060;-75
2022/06/20 13:51:12;;;;;;;5.43;1.20;;;22.60;1.00;;;;;;5070419;28;20110;-73
2022/06/20 13:53:50;;;;;;;6.95;1.25;;;23.80;1.00;;;;;;5070681;28;20174;-74